createdAt,value
2018-12-04T00:00:41.675Z,97916.65
2018-12-04T00:03:10.896Z,97918.84
2018-12-04T00:05:40.027Z,97913.24
2018-12-04T00:08:09.272Z,97912.34
2018-12-04T00:10:38.567Z,97902.86
2018-12-04T00:13:07.775Z,97906.23
2018-12-04T00:15:37.033Z,97901.48
2018-12-04T00:18:06.235Z,97909.27
2018-12-04T00:20:35.187Z,97903.27
2018-12-04T00:23:04.592Z,97905.84
2018-12-04T00:25:33.819Z,97910.98
2018-12-04T00:28:02.848Z,97911.85
2018-12-04T00:30:31.768Z,97902.83
2018-12-04T00:33:00.995Z,97905.81
2018-12-04T00:35:30.230Z,97900.62
2018-12-04T00:37:59.005Z,97901.08
2018-12-04T00:40:28.212Z,97902.81
2018-12-04T00:42:57.471Z,97895.41
2018-12-04T00:45:26.936Z,97900.16
2018-12-04T00:47:55.799Z,97897.15
2018-12-04T00:50:24.963Z,97898.00
2018-12-04T00:52:54.197Z,97902.31
2018-12-04T00:55:23.354Z,97898.42
2018-12-04T00:57:52.603Z,97902.69
2018-12-04T01:00:21.459Z,97900.55
2018-12-04T01:02:50.439Z,97895.86
2018-12-04T01:05:19.587Z,97894.52
2018-12-04T01:07:48.735Z,97897.54
2018-12-04T01:10:17.976Z,97896.66
2018-12-04T01:12:47.277Z,97898.35
2018-12-04T01:15:16.477Z,97895.80
2018-12-04T01:17:45.489Z,97895.42
2018-12-04T01:20:14.272Z,97888.06
2018-12-04T01:22:43.397Z,97887.23
2018-12-04T01:25:12.347Z,97888.96
2018-12-04T01:27:41.550Z,97888.96
2018-12-04T01:30:10.793Z,97890.72
2018-12-04T01:32:39.842Z,97888.13
2018-12-04T01:35:09.083Z,97873.89
2018-12-04T01:37:37.963Z,97880.39
2018-12-04T01:40:07.229Z,97879.12
2018-12-04T01:42:36.369Z,97876.53
2018-12-04T01:45:06.078Z,97872.20
2018-12-04T01:47:35.228Z,97867.52
2018-12-04T01:50:04.674Z,97870.10
2018-12-04T01:52:33.749Z,97859.34
2018-12-04T01:55:02.980Z,97851.19
2018-12-04T01:57:32.161Z,97850.68
2018-12-04T02:00:00.959Z,97849.02
2018-12-04T02:02:30.186Z,97853.88
2018-12-04T02:04:59.295Z,97846.94
2018-12-04T02:07:28.547Z,97845.19
2018-12-04T02:09:57.783Z,97834.03
2018-12-04T02:12:26.827Z,97831.79
2018-12-04T02:14:56.176Z,97829.59
2018-12-04T02:17:25.240Z,97839.92
2018-12-04T02:19:54.458Z,97830.47
2018-12-04T02:22:23.216Z,97829.55
2018-12-04T02:24:52.373Z,97825.62
2018-12-04T02:27:21.508Z,97825.20
2018-12-04T02:29:50.523Z,97823.03
2018-12-04T02:32:19.332Z,97819.17
2018-12-04T02:34:48.511Z,97813.63
2018-12-04T02:37:17.623Z,97814.92
2018-12-04T02:39:46.773Z,97802.91
2018-12-04T02:42:16.075Z,97806.37
2018-12-04T02:44:45.028Z,97801.27
2018-12-04T02:47:14.450Z,97794.89
2018-12-04T02:49:43.351Z,97801.77
2018-12-04T02:52:12.556Z,97806.02
2018-12-04T02:54:41.660Z,97801.72
2018-12-04T02:57:10.552Z,97798.28
2018-12-04T02:59:39.727Z,97799.98
2018-12-04T03:02:08.618Z,97805.13
2018-12-04T03:04:37.385Z,97799.15
2018-12-04T03:07:06.643Z,97801.34
2018-12-04T03:09:35.853Z,97802.66
2018-12-04T03:12:04.991Z,97802.18
2018-12-04T03:14:34.194Z,97804.80
2018-12-04T03:17:03.436Z,97804.30
2018-12-04T03:19:32.584Z,97805.12
2018-12-04T03:22:01.440Z,97799.98
2018-12-04T03:24:30.224Z,97805.15
2018-12-04T03:26:59.034Z,97809.08
2018-12-04T03:29:28.207Z,97808.69
2018-12-04T03:31:57.253Z,97805.62
2018-12-04T03:34:26.069Z,97812.92
2018-12-04T03:36:54.859Z,97800.05
2018-12-04T03:39:23.919Z,97801.35
2018-12-04T03:41:53.151Z,97805.15
2018-12-04T03:44:22.322Z,97813.75
2018-12-04T03:46:51.556Z,97809.96
2018-12-04T03:49:20.648Z,97809.12
2018-12-04T03:51:49.839Z,97812.55
2018-12-04T03:54:18.662Z,97814.66
2018-12-04T03:56:47.937Z,97821.42
2018-12-04T03:59:16.970Z,97828.66
2018-12-04T04:01:46.212Z,97838.30
2018-12-04T04:04:15.424Z,97829.70
2018-12-04T04:06:44.725Z,97836.61
2018-12-04T04:09:13.971Z,97826.97
2018-12-04T04:11:43.164Z,97826.06
2018-12-04T04:14:11.977Z,97824.12
2018-12-04T04:16:41.063Z,97825.83
2018-12-04T04:19:10.082Z,97811.96
2018-12-04T04:21:39.291Z,97820.94
2018-12-04T04:24:08.470Z,97815.30
2018-12-04T04:26:37.736Z,97813.97
2018-12-04T04:29:06.976Z,97803.67
2018-12-04T04:31:36.227Z,97802.79
2018-12-04T04:34:05.106Z,97800.60
2018-12-04T04:36:34.303Z,97807.92
2018-12-04T04:39:03.540Z,97807.56
2018-12-04T04:41:32.711Z,97808.47
2018-12-04T04:44:01.823Z,97804.20
2018-12-04T04:47:02.687Z,97794.83
2018-12-04T04:49:31.796Z,97804.30
2018-12-04T04:52:00.625Z,97799.05
2018-12-04T04:54:29.473Z,97801.75
2018-12-04T04:56:58.518Z,97805.22
2018-12-04T04:59:27.558Z,97805.85
2018-12-04T05:01:56.667Z,97802.84
2018-12-04T05:04:25.440Z,97801.51
2018-12-04T05:06:54.483Z,97807.23
2018-12-04T05:09:23.529Z,97797.25
2018-12-04T05:11:52.971Z,97810.98
2018-12-04T05:14:22.164Z,97807.16
2018-12-04T05:16:51.136Z,97792.48
2018-12-04T05:19:20.252Z,97797.65
2018-12-04T05:21:49.312Z,97800.20
2018-12-04T05:24:18.164Z,97797.54
2018-12-04T05:26:47.036Z,97795.95
2018-12-04T05:29:16.171Z,97794.13
2018-12-04T05:31:45.027Z,97797.52
2018-12-04T05:34:14.020Z,97796.58
2018-12-04T05:36:43.162Z,97796.32
2018-12-04T05:39:12.296Z,97804.91
2018-12-04T05:41:41.067Z,97808.80
2018-12-04T05:44:10.083Z,97812.25
2018-12-04T05:46:39.128Z,97813.48
2018-12-04T05:49:08.008Z,97808.78
2018-12-04T05:51:37.112Z,97815.17
2018-12-04T05:54:06.243Z,97820.00
2018-12-04T05:56:35.350Z,97830.33
2018-12-04T05:59:04.340Z,97838.53
2018-12-04T06:01:33.474Z,97833.80
2018-12-04T06:04:02.731Z,97833.88
2018-12-04T06:06:31.975Z,97827.86
2018-12-04T06:09:01.119Z,97833.98
2018-12-04T06:11:30.217Z,97836.61
2018-12-04T06:13:59.311Z,97841.84
2018-12-04T06:16:28.228Z,97837.17
2018-12-04T06:18:57.304Z,97839.77
2018-12-04T06:21:26.451Z,97837.25
2018-12-04T06:23:55.544Z,97844.98
2018-12-04T06:26:24.536Z,97838.16
2018-12-04T06:28:53.567Z,97840.39
2018-12-04T06:31:22.347Z,97851.54
2018-12-04T06:33:51.614Z,97851.59
2018-12-04T06:36:20.652Z,97851.66
2018-12-04T06:38:49.943Z,97850.91
2018-12-04T06:41:19.460Z,97861.67
2018-12-04T06:43:48.516Z,97862.66
2018-12-04T06:46:17.499Z,97861.41
2018-12-04T06:48:46.530Z,97852.02
2018-12-04T06:51:15.327Z,97859.35
2018-12-04T06:53:44.383Z,97853.80
2018-12-04T06:56:13.621Z,97844.30
2018-12-04T06:58:42.767Z,97847.34
2018-12-04T07:01:11.839Z,97852.09
2018-12-04T07:03:41.063Z,97851.22
2018-12-04T07:06:10.240Z,97840.02
2018-12-04T07:08:39.196Z,97848.56
2018-12-04T07:11:08.304Z,97839.42
2018-12-04T07:13:37.399Z,97846.72
2018-12-04T07:16:06.116Z,97843.95
2018-12-04T07:18:35.168Z,97845.55
2018-12-04T07:21:04.251Z,97849.72
2018-12-04T07:23:33.119Z,97840.06
2018-12-04T07:26:02.214Z,97841.69
2018-12-04T07:28:31.222Z,97833.38
2018-12-04T07:31:00.498Z,97844.48
2018-12-04T07:33:29.584Z,97842.29
2018-12-04T07:35:58.445Z,97849.12
2018-12-04T07:38:27.616Z,97850.97
2018-12-04T07:40:56.656Z,97857.44
2018-12-04T07:43:25.795Z,97859.21
2018-12-04T07:45:54.840Z,97859.14
2018-12-04T07:48:23.943Z,97864.27
2018-12-04T07:50:52.944Z,97872.39
2018-12-04T07:53:21.919Z,97869.28
2018-12-04T07:55:50.752Z,97873.05
2018-12-04T07:58:19.992Z,97870.75
2018-12-04T08:00:49.052Z,97867.20
2018-12-04T08:03:17.884Z,97869.67
2018-12-04T08:05:47.101Z,97867.07
2018-12-04T08:08:16.312Z,97869.09
2018-12-04T08:10:45.170Z,97870.95
2018-12-04T08:13:14.312Z,97873.94
2018-12-04T08:15:43.016Z,97878.20
2018-12-04T08:18:12.096Z,97870.80
2018-12-04T08:20:41.291Z,97867.23
2018-12-04T08:23:10.388Z,97867.02
2018-12-04T08:25:39.455Z,97868.03
2018-12-04T08:28:08.308Z,97869.48
2018-12-04T08:30:37.276Z,97871.67
2018-12-04T08:33:06.327Z,97866.81
2018-12-04T08:35:35.307Z,97869.78
2018-12-04T08:38:04.343Z,97862.23
2018-12-04T08:40:33.396Z,97858.55
2018-12-04T08:43:02.475Z,97857.72
2018-12-04T08:45:31.397Z,97862.28
2018-12-04T08:48:00.522Z,97859.06
2018-12-04T08:50:29.658Z,97860.67
2018-12-04T08:52:58.775Z,97854.05
2018-12-04T08:55:27.975Z,97849.95
2018-12-04T08:57:56.951Z,97852.14
2018-12-04T09:00:26.223Z,97850.98
2018-12-04T09:02:55.258Z,97847.61
2018-12-04T09:05:24.275Z,97846.98
2018-12-04T09:07:53.227Z,97851.83
2018-12-04T09:10:22.368Z,97848.23
2018-12-04T09:12:51.524Z,97833.66
2018-12-04T09:15:20.332Z,97835.89
2018-12-04T09:17:49.402Z,97835.31
2018-12-04T09:20:18.340Z,97829.62
2018-12-04T09:22:47.664Z,97822.17
2018-12-04T09:25:17.027Z,97820.91
2018-12-04T09:27:45.903Z,97812.28
2018-12-04T09:30:15.405Z,97804.48
2018-12-04T09:32:44.327Z,97805.20
2018-12-04T09:35:13.507Z,97805.33
2018-12-04T09:37:42.621Z,97792.63
2018-12-04T09:40:11.680Z,97795.88
2018-12-04T09:42:40.547Z,97799.30
2018-12-04T09:45:09.768Z,97793.05
2018-12-04T09:47:38.811Z,97780.86
2018-12-04T09:50:08.869Z,97774.36
2018-12-04T09:52:38.074Z,97771.95
2018-12-04T09:55:07.410Z,97777.03
2018-12-04T09:57:36.570Z,97775.15
2018-12-04T10:00:07.300Z,97779.70
2018-12-04T10:02:36.423Z,97770.02
2018-12-04T10:05:05.776Z,97764.09
2018-12-04T10:07:34.829Z,97762.08
2018-12-04T10:10:04.315Z,97761.00
2018-12-04T10:12:33.501Z,97760.70
2018-12-04T10:15:02.534Z,97768.17
2018-12-04T10:17:31.673Z,97756.36
2018-12-04T10:20:00.813Z,97762.30
2018-12-04T10:22:30.059Z,97757.46
2018-12-04T10:24:58.965Z,97748.90
2018-12-04T10:27:27.999Z,97745.55
2018-12-04T10:29:57.136Z,97746.14
2018-12-04T10:32:26.199Z,97737.15
2018-12-04T10:34:55.032Z,97732.09
2018-12-04T10:37:24.157Z,97740.17
2018-12-04T10:39:54.041Z,97729.70
2018-12-04T10:42:23.232Z,97725.88
2018-12-04T10:44:52.198Z,97726.09
2018-12-04T10:47:21.253Z,97715.93
2018-12-04T10:49:50.620Z,97713.03
2018-12-04T10:52:19.856Z,97713.31
2018-12-04T10:54:49.100Z,97707.02
2018-12-04T10:57:18.059Z,97700.96
2018-12-04T10:59:47.199Z,97695.42
2018-12-04T11:02:21.417Z,97689.19
2018-12-04T11:04:50.319Z,97691.37
2018-12-04T11:07:19.103Z,97692.06
2018-12-04T11:09:48.130Z,97689.67
2018-12-04T11:12:17.188Z,97692.27
2018-12-04T11:14:46.422Z,97685.24
2018-12-04T11:17:15.186Z,97685.36
2018-12-04T11:19:43.900Z,97687.69
2018-12-04T11:22:13.035Z,97681.31
2018-12-04T11:24:42.136Z,97685.67
2018-12-04T11:27:11.304Z,97682.00
2018-12-04T11:29:40.515Z,97685.26
2018-12-04T11:32:09.292Z,97684.31
2018-12-04T11:34:38.315Z,97684.97
2018-12-04T11:37:07.392Z,97681.94
2018-12-04T11:39:36.447Z,97676.48
2018-12-04T11:42:05.681Z,97669.39
2018-12-04T11:44:34.883Z,97667.83
2018-12-04T11:47:03.691Z,97659.52
2018-12-04T11:49:32.620Z,97663.04
2018-12-04T11:52:01.844Z,97661.84
2018-12-04T11:54:31.064Z,97664.25
2018-12-04T11:57:00.180Z,97663.74
2018-12-04T11:59:29.259Z,97655.63
2018-12-04T12:01:58.428Z,97654.25
2018-12-04T12:04:27.276Z,97648.23
2018-12-04T12:06:56.319Z,97650.05
2018-12-04T12:09:25.434Z,97648.61
2018-12-04T12:11:54.775Z,97653.95
2018-12-04T12:14:23.575Z,97650.70
2018-12-04T12:16:52.821Z,97647.12
2018-12-04T12:19:21.773Z,97641.27
2018-12-04T12:21:50.939Z,97645.70
2018-12-04T12:24:19.983Z,97647.31
2018-12-04T12:26:49.112Z,97636.02
2018-12-04T12:29:18.231Z,97642.23
2018-12-04T12:31:47.020Z,97641.38
2018-12-04T12:34:15.973Z,97635.11
2018-12-04T12:36:45.120Z,97639.00
2018-12-04T12:39:14.252Z,97644.56
2018-12-04T12:41:43.366Z,97640.08
2018-12-04T12:44:12.174Z,97641.89
2018-12-04T12:46:41.338Z,97648.36
2018-12-04T12:49:10.475Z,97645.37
2018-12-04T12:51:39.635Z,97650.41
2018-12-04T12:54:08.739Z,97658.88
2018-12-04T12:56:37.472Z,97660.75
2018-12-04T12:59:06.494Z,97664.92
2018-12-04T13:01:35.624Z,97661.67
2018-12-04T13:04:04.743Z,97665.31
2018-12-04T13:06:33.609Z,97668.00
2018-12-04T13:09:02.887Z,97665.98
2018-12-04T13:11:32.021Z,97663.27
2018-12-04T13:14:01.477Z,97665.45
2018-12-04T13:16:30.725Z,97663.91
2018-12-04T13:18:59.999Z,97657.20
2018-12-04T13:21:28.807Z,97658.84
2018-12-04T13:23:57.933Z,97652.23
2018-12-04T13:26:27.118Z,97662.23
2018-12-04T13:28:56.004Z,97649.39
2018-12-04T13:31:25.258Z,97656.44
2018-12-04T13:33:54.300Z,97656.11
2018-12-04T13:36:23.584Z,97653.44
2018-12-04T13:38:52.471Z,97660.82
2018-12-04T13:41:21.583Z,97655.59
2018-12-04T13:43:50.581Z,97654.92
2018-12-04T13:46:19.709Z,97656.40
2018-12-04T13:48:48.959Z,97654.19
2018-12-04T13:51:18.114Z,97650.51
2018-12-04T13:53:47.045Z,97651.67
2018-12-04T13:56:16.205Z,97657.48
2018-12-04T13:58:48.576Z,97647.88
2018-12-04T14:01:16.299Z,97651.77
2018-12-04T14:03:45.193Z,97656.96
2018-12-04T14:06:14.236Z,97654.78
2018-12-04T14:08:43.413Z,97656.98
2018-12-04T14:11:12.257Z,97664.31
2018-12-04T14:13:41.363Z,97660.87
2018-12-04T14:16:10.397Z,97661.77
2018-12-04T14:18:39.584Z,97659.45
2018-12-04T14:21:08.892Z,97664.45
2018-12-04T14:23:37.719Z,97662.09
2018-12-04T14:26:06.484Z,97665.27
2018-12-04T14:28:35.443Z,97664.53
2018-12-04T14:31:04.468Z,97667.74
2018-12-04T14:33:33.747Z,97668.77
2018-12-04T14:36:02.988Z,97675.45
2018-12-04T14:38:32.363Z,97675.11
2018-12-04T14:41:01.590Z,97673.47
2018-12-04T14:43:30.600Z,97670.05
2018-12-04T14:45:59.743Z,97671.82
2018-12-04T14:48:28.788Z,97670.73
2018-12-04T14:50:57.822Z,97668.66
2018-12-04T14:53:26.634Z,97676.03
2018-12-04T14:55:55.697Z,97677.85
2018-12-04T14:58:24.680Z,97678.45
2018-12-04T15:00:53.664Z,97682.58
2018-12-04T15:03:22.743Z,97681.91
2018-12-04T15:05:51.955Z,97688.50
2018-12-04T15:08:21.069Z,97692.13
2018-12-04T15:10:49.975Z,97697.91
2018-12-04T15:13:19.238Z,97694.59
2018-12-04T15:15:48.351Z,97693.66
2018-12-04T15:18:17.580Z,97696.84
2018-12-04T15:20:46.759Z,97691.34
2018-12-04T15:23:15.963Z,97695.72
2018-12-04T15:25:45.238Z,97691.80
2018-12-04T15:28:14.626Z,97690.05
2018-12-04T15:30:43.924Z,97692.23
2018-12-04T15:33:12.991Z,97694.48
2018-12-04T15:35:42.118Z,97691.05
2018-12-04T15:38:11.169Z,97697.38
2018-12-04T15:40:40.313Z,97696.23
2018-12-04T15:43:09.564Z,97699.87
2018-12-04T15:45:38.838Z,97703.46
2018-12-04T15:48:07.869Z,97697.88
2018-12-04T15:50:37.144Z,97699.66
2018-12-04T15:53:06.270Z,97696.61
2018-12-04T15:55:35.461Z,97695.75
2018-12-04T15:58:05.105Z,97696.22
2018-12-04T16:00:34.363Z,97694.52
2018-12-04T16:03:03.685Z,97697.56
2018-12-04T16:05:32.967Z,97695.37
2018-12-04T16:08:02.172Z,97698.41
2018-12-04T16:10:31.349Z,97695.86
2018-12-04T16:13:00.341Z,97694.20
2018-12-04T16:15:29.730Z,97694.71
2018-12-04T16:18:00.235Z,97693.92
2018-12-04T16:20:29.320Z,97692.63
2018-12-04T16:22:58.045Z,97693.95
2018-12-04T16:25:27.081Z,97694.39
2018-12-04T16:27:55.919Z,97694.37
2018-12-04T16:30:25.269Z,97694.81
2018-12-04T16:32:54.483Z,97693.53
2018-12-04T16:35:23.332Z,97705.25
2018-12-04T16:37:52.724Z,97707.02
2018-12-04T16:40:21.772Z,97714.39
2018-12-04T16:42:50.977Z,97719.61
2018-12-04T16:45:19.783Z,97713.58
2018-12-04T16:47:48.940Z,97715.72
2018-12-04T16:50:17.856Z,97716.58
2018-12-04T16:52:46.636Z,97721.36
2018-12-04T16:55:15.519Z,97721.80
2018-12-04T16:57:44.513Z,97720.97
2018-12-04T17:00:13.773Z,97713.61
2018-12-04T17:02:42.904Z,97720.09
2018-12-04T17:05:12.153Z,97730.02
2018-12-04T17:07:41.011Z,97733.44
2018-12-04T17:10:10.019Z,97736.06
2018-12-04T17:12:39.173Z,97741.72
2018-12-04T17:15:08.888Z,97743.42
2018-12-04T17:17:38.107Z,97753.37
2018-12-04T17:20:08.204Z,97756.45
2018-12-04T17:22:38.165Z,97754.20
2018-12-04T17:25:06.991Z,97761.05
2018-12-04T17:27:35.913Z,97765.77
2018-12-04T17:30:05.351Z,97764.00
2018-12-04T17:32:34.339Z,97762.25
2018-12-04T17:35:03.913Z,97766.98
2018-12-04T17:37:32.944Z,97769.11
2018-12-04T17:40:02.227Z,97766.51
2018-12-04T17:42:31.366Z,97762.11
2018-12-04T17:45:00.463Z,97768.99
2018-12-04T17:47:29.578Z,97769.03
2018-12-04T17:49:58.613Z,97778.91
2018-12-04T17:52:27.790Z,97781.48
2018-12-04T17:54:57.791Z,97781.00
2018-12-04T17:57:26.936Z,97786.58
2018-12-04T17:59:56.078Z,97784.91
2018-12-04T18:02:25.272Z,97783.23
2018-12-04T18:04:54.222Z,97787.22
2018-12-04T18:07:23.263Z,97779.06
2018-12-04T18:09:55.262Z,97769.63
2018-12-04T18:12:24.429Z,97770.52
2018-12-04T18:14:54.268Z,97771.84
2018-12-04T18:17:23.376Z,97776.18
2018-12-04T18:19:52.429Z,97781.44
2018-12-04T18:22:21.517Z,97780.20
2018-12-04T18:24:50.740Z,97778.95
2018-12-04T18:27:20.008Z,97784.20
2018-12-04T18:29:49.114Z,97790.73
2018-12-04T18:32:18.510Z,97798.99
2018-12-04T18:34:47.665Z,97798.60
2018-12-04T18:37:16.992Z,97798.20
2018-12-04T18:39:46.303Z,97797.32
2018-12-04T18:42:15.503Z,97798.19
2018-12-04T18:44:45.099Z,97793.88
2018-12-04T18:47:14.300Z,97793.86
2018-12-04T18:49:43.285Z,97799.48
2018-12-04T18:52:12.355Z,97808.62
2018-12-04T18:54:41.598Z,97809.91
2018-12-04T18:57:10.678Z,97809.52
2018-12-04T18:59:39.787Z,97807.78
2018-12-04T19:02:08.789Z,97806.08
2018-12-04T19:04:38.065Z,97812.13
2018-12-04T19:07:07.315Z,97814.28
2018-12-04T19:09:36.500Z,97805.22
2018-12-04T19:12:06.140Z,97802.61
2018-12-04T19:14:35.160Z,97807.75
2018-12-04T19:17:04.126Z,97812.98
2018-12-04T19:19:33.180Z,97813.28
2018-12-04T19:22:02.036Z,97811.98
2018-12-04T19:24:31.162Z,97809.39
2018-12-04T19:27:00.223Z,97811.13
2018-12-04T19:29:29.371Z,97810.69
2018-12-04T19:31:58.596Z,97816.73
2018-12-04T19:34:27.607Z,97817.14
2018-12-04T19:36:56.460Z,97813.28
2018-12-04T19:39:25.396Z,97815.42
2018-12-04T19:41:54.518Z,97818.92
2018-12-04T19:44:23.684Z,97815.05
2018-12-04T19:46:52.881Z,97813.76
2018-12-04T19:49:21.907Z,97809.44
2018-12-04T19:51:50.999Z,97812.04
2018-12-04T19:54:20.183Z,97815.95
2018-12-04T19:56:49.215Z,97818.50
2018-12-04T19:59:18.293Z,97828.47
2018-12-04T20:01:47.355Z,97825.95
2018-12-04T20:04:16.532Z,97830.13
2018-12-04T20:06:45.673Z,97833.56
2018-12-04T20:09:14.989Z,97836.53
2018-12-04T20:11:43.735Z,97838.72
2018-12-04T20:14:12.861Z,97841.23
2018-12-04T20:16:41.951Z,97849.45
2018-12-04T20:19:11.158Z,97845.69
2018-12-04T20:21:40.293Z,97847.78
2018-12-04T20:24:09.348Z,97841.67
2018-12-04T20:26:38.361Z,97846.01
2018-12-04T20:29:07.212Z,97847.78
2018-12-04T20:31:36.167Z,97850.85
2018-12-04T20:34:05.312Z,97851.70
2018-12-04T20:36:34.499Z,97847.40
2018-12-04T20:39:05.212Z,97852.17
2018-12-04T20:41:34.852Z,97848.72
2018-12-04T20:44:03.912Z,97854.36
2018-12-04T20:46:33.088Z,97852.21
2018-12-04T20:49:02.203Z,97851.34
2018-12-04T20:51:31.505Z,97849.64
2018-12-04T20:54:00.336Z,97855.23
2018-12-04T20:56:29.085Z,97859.11
2018-12-04T20:58:58.245Z,97860.41
2018-12-04T21:01:27.486Z,97864.75
2018-12-04T21:03:56.602Z,97863.90
2018-12-04T21:06:25.693Z,97867.80
2018-12-04T21:08:54.515Z,97863.95
2018-12-04T21:11:23.737Z,97873.87
2018-12-04T21:13:54.298Z,97869.14
2018-12-04T21:16:23.283Z,97874.33
2018-12-04T21:18:52.295Z,97872.59
2018-12-04T21:21:21.436Z,97871.28
2018-12-04T21:23:50.620Z,97882.08
2018-12-04T21:26:19.856Z,97879.08
2018-12-04T21:28:53.793Z,97877.77
2018-12-04T21:31:28.180Z,97878.17
2018-12-04T21:34:02.419Z,97882.89
2018-12-04T21:36:36.539Z,97878.09
2018-12-04T21:39:16.150Z,97881.55
2018-12-04T21:41:50.025Z,97877.66
2018-12-04T21:44:24.271Z,97877.19
2018-12-04T21:46:58.692Z,97875.47
2018-12-04T21:49:28.211Z,97877.59
2018-12-04T21:51:57.381Z,97874.58
2018-12-04T21:54:26.514Z,97878.50
2018-12-04T21:56:55.767Z,97876.34
2018-12-04T21:59:24.968Z,97878.53
2018-12-04T22:01:53.970Z,97877.22
2018-12-04T22:04:23.052Z,97874.23
2018-12-04T22:06:52.152Z,97879.40
2018-12-04T22:09:21.103Z,97878.13
2018-12-04T22:11:50.326Z,97876.00
2018-12-04T22:14:19.431Z,97879.06
2018-12-04T22:16:48.520Z,97876.46
2018-12-04T22:19:17.660Z,97873.05
2018-12-04T22:21:46.861Z,97872.62
2018-12-04T22:24:15.830Z,97867.87
2018-12-04T22:26:44.955Z,97870.03
2018-12-04T22:29:14.078Z,97862.71
2018-12-04T22:31:42.861Z,97870.50
2018-12-04T22:34:11.877Z,97874.41
2018-12-04T22:36:41.080Z,97864.91
2018-12-04T22:39:10.889Z,97864.48
2018-12-04T22:41:40.091Z,97863.20
2018-12-04T22:44:09.335Z,97863.20
2018-12-04T22:46:38.567Z,97860.63
2018-12-04T22:49:07.619Z,97863.66
2018-12-04T22:51:36.843Z,97863.66
2018-12-04T22:54:06.068Z,97864.51
2018-12-04T22:56:35.155Z,97861.92
2018-12-04T22:59:04.321Z,97871.86
2018-12-04T23:01:39.408Z,97875.75
2018-12-04T23:04:08.244Z,97870.59
2018-12-04T23:06:37.460Z,97876.63
2018-12-04T23:09:09.853Z,97877.95
2018-12-04T23:11:39.892Z,97879.23
2018-12-04T23:14:09.334Z,97883.11
2018-12-04T23:16:38.371Z,97881.80
2018-12-04T23:19:07.212Z,97883.08
2018-12-04T23:21:36.391Z,97880.94
2018-12-04T23:24:05.964Z,97880.52
2018-12-04T23:26:34.971Z,97876.16
2018-12-04T23:29:04.270Z,97877.91
2018-12-04T23:31:33.432Z,97880.50
2018-12-04T23:34:02.540Z,97883.09
2018-12-04T23:36:31.615Z,97877.05
2018-12-04T23:39:00.852Z,97879.22
2018-12-04T23:41:30.031Z,97879.20
2018-12-04T23:43:58.848Z,97876.16
2018-12-04T23:46:27.960Z,97876.16
2018-12-04T23:48:57.111Z,97880.50
2018-12-04T23:51:26.196Z,97873.59
2018-12-04T23:53:55.060Z,97865.41
2018-12-04T23:56:24.288Z,97868.41
2018-12-04T23:58:53.347Z,97867.96
